createdAt,value
2022-08-01T00:00:05.450Z,100172.44
2022-08-01T00:02:32.377Z,100175.06
2022-08-01T00:04:59.216Z,100175.06
2022-08-01T00:07:25.607Z,100172.34
2022-08-01T00:09:52.118Z,100169.81
2022-08-01T00:12:18.711Z,100172.78
2022-08-01T00:14:45.169Z,100174.75
2022-08-01T00:17:11.586Z,100180.16
2022-08-01T00:19:38.005Z,100170.56
2022-08-01T00:22:04.777Z,100177.34
2022-08-01T00:24:31.510Z,100173.75
2022-08-01T00:26:57.900Z,100185.41
2022-08-01T00:30:13.452Z,100194.28
2022-08-01T00:32:10.903Z,100193.66
2022-08-01T00:34:37.408Z,100192.03
2022-08-01T00:37:03.889Z,100176.22
2022-08-01T00:39:30.790Z,100189.66
2022-08-01T00:41:59.919Z,100194.31
2022-08-01T00:44:27.488Z,100192.44
2022-08-01T00:46:53.985Z,100188.63
2022-08-01T00:49:20.609Z,100198.03
2022-08-01T00:51:47.229Z,100192.59
2022-08-01T00:54:16.464Z,100185.47
2022-08-01T00:56:44.540Z,100187.81
2022-08-01T00:59:14.077Z,100182.16
2022-08-01T01:01:46.504Z,100192.41
2022-08-01T01:04:13.145Z,100194.47
2022-08-01T01:07:02.467Z,100192.00
2022-08-01T01:09:58.892Z,100197.09
2022-08-01T01:12:52.681Z,100202.00
2022-08-01T01:15:27.476Z,100201.75
2022-08-01T01:17:59.021Z,100196.19
2022-08-01T01:20:31.422Z,100199.50
2022-08-01T01:23:20.384Z,100198.25
2022-08-01T01:26:15.771Z,100203.59
2022-08-01T01:29:07.095Z,100200.03
2022-08-01T01:31:47.056Z,100190.66
2022-08-01T01:34:16.150Z,100198.03
2022-08-01T01:36:44.711Z,100202.47
2022-08-01T01:39:12.241Z,100199.38
2022-08-01T01:41:40.056Z,100207.75
2022-08-01T01:44:07.472Z,100199.13
2022-08-01T01:46:34.933Z,100206.66
2022-08-01T01:49:02.645Z,100203.69
2022-08-01T01:51:29.763Z,100209.84
2022-08-01T01:53:57.684Z,100215.31
2022-08-01T01:56:25.855Z,100214.09
2022-08-01T01:59:01.619Z,100216.03
2022-08-01T02:01:58.323Z,100211.63
2022-08-01T02:04:17.651Z,100210.91
2022-08-01T02:06:47.932Z,100213.06
2022-08-01T02:09:20.385Z,100213.38
2022-08-01T02:12:08.238Z,100209.13
2022-08-01T02:14:36.430Z,100209.63
2022-08-01T02:17:04.967Z,100215.66
2022-08-01T02:19:31.877Z,100214.38
2022-08-01T02:22:17.614Z,100206.53
2022-08-01T02:25:00.143Z,100211.13
2022-08-01T02:27:31.382Z,100210.81
2022-08-01T02:30:06.917Z,100212.88
2022-08-01T02:32:33.303Z,100211.06
2022-08-01T02:35:02.218Z,100212.44
2022-08-01T02:37:32.393Z,100212.44
2022-08-01T02:40:00.841Z,100216.09
2022-08-01T02:42:30.772Z,100212.03
2022-08-01T02:44:58.172Z,100214.81
2022-08-01T02:47:27.282Z,100211.47
2022-08-01T02:49:56.435Z,100211.69
2022-08-01T02:52:25.394Z,100204.56
2022-08-01T02:54:55.427Z,100206.94
2022-08-01T02:57:23.144Z,100212.25
2022-08-01T02:59:56.967Z,100206.53
2022-08-01T03:02:24.984Z,100210.53
2022-08-01T03:04:56.961Z,100204.06
2022-08-01T03:07:24.974Z,100206.94
2022-08-01T03:10:01.991Z,100214.50
2022-08-01T03:12:32.201Z,100210.72
2022-08-01T03:15:01.583Z,100208.56
2022-08-01T03:17:29.737Z,100202.84
2022-08-01T03:19:59.841Z,100202.63
2022-08-01T03:22:27.654Z,100206.63
2022-08-01T03:24:54.939Z,100208.63
2022-08-01T03:27:23.331Z,100210.06
2022-08-01T03:29:51.338Z,100208.47
2022-08-01T03:32:20.209Z,100214.16
2022-08-01T03:34:47.489Z,100213.19
2022-08-01T03:37:22.674Z,100214.34
2022-08-01T03:39:53.183Z,100225.69
2022-08-01T03:42:24.405Z,100213.25
2022-08-01T03:44:57.858Z,100226.59
2022-08-01T03:47:29.272Z,100229.28
2022-08-01T03:49:58.691Z,100226.00
2022-08-01T03:52:28.470Z,100226.19
2022-08-01T03:54:57.219Z,100225.16
2022-08-01T03:57:35.902Z,100228.31
2022-08-01T04:00:08.115Z,100224.31
2022-08-01T04:02:35.464Z,100225.72
2022-08-01T04:05:03.324Z,100217.88
2022-08-01T04:07:36.772Z,100222.06
2022-08-01T04:10:04.374Z,100222.19
2022-08-01T04:12:30.802Z,100223.72
2022-08-01T04:14:57.305Z,100221.81
2022-08-01T04:17:23.713Z,100214.75
2022-08-01T04:19:50.661Z,100220.75
2022-08-01T04:22:17.338Z,100230.75
2022-08-01T04:24:56.415Z,100232.88
2022-08-01T04:27:50.100Z,100233.13
2022-08-01T04:30:18.554Z,100249.63
2022-08-01T04:32:47.987Z,100246.94
2022-08-01T04:35:23.046Z,100244.94
2022-08-01T04:38:07.118Z,100253.13
2022-08-01T04:40:37.123Z,100254.06
2022-08-01T04:43:04.214Z,100253.25
2022-08-01T04:45:33.519Z,100260.31
2022-08-01T04:48:01.231Z,100267.38
2022-08-01T04:50:28.261Z,100271.09
2022-08-01T04:52:54.683Z,100269.41
2022-08-01T04:55:21.243Z,100269.34
2022-08-01T04:57:49.702Z,100273.28
2022-08-01T05:00:17.526Z,100280.00
2022-08-01T05:02:44.423Z,100276.06
2022-08-01T05:05:11.584Z,100270.50
2022-08-01T05:07:44.342Z,100270.53
2022-08-01T05:10:11.782Z,100279.19
2022-08-01T05:12:38.211Z,100279.47
2022-08-01T05:15:05.275Z,100272.94
2022-08-01T05:17:32.616Z,100279.34
2022-08-01T05:19:59.111Z,100284.56
2022-08-01T05:22:26.488Z,100281.78
2022-08-01T05:24:53.653Z,100283.38
2022-08-01T05:27:20.641Z,100288.09
2022-08-01T05:29:48.088Z,100287.44
2022-08-01T05:32:14.731Z,100291.44
2022-08-01T05:34:41.131Z,100287.50
2022-08-01T05:37:08.398Z,100290.00
2022-08-01T05:39:34.943Z,100297.44
2022-08-01T05:42:01.424Z,100288.59
2022-08-01T05:44:27.989Z,100304.09
2022-08-01T05:46:54.600Z,100295.94
2022-08-01T05:49:21.150Z,100295.53
2022-08-01T05:51:47.591Z,100297.44
2022-08-01T05:54:14.115Z,100298.50
2022-08-01T05:56:40.551Z,100298.69
2022-08-01T05:59:07.196Z,100297.69
2022-08-01T06:01:33.857Z,100300.78
2022-08-01T06:04:00.240Z,100295.66
2022-08-01T06:06:26.740Z,100295.53
2022-08-01T06:08:53.140Z,100306.72
2022-08-01T06:11:19.737Z,100310.13
2022-08-01T06:13:48.784Z,100305.34
2022-08-01T06:16:15.974Z,100311.88
2022-08-01T06:18:42.397Z,100314.56
2022-08-01T06:21:09.007Z,100315.84
2022-08-01T06:23:35.538Z,100319.03
2022-08-01T06:26:02.068Z,100321.38
2022-08-01T06:28:29.105Z,100327.16
2022-08-01T06:30:55.602Z,100320.41
2022-08-01T06:33:22.029Z,100332.97
2022-08-01T06:35:48.448Z,100317.66
2022-08-01T06:38:14.961Z,100319.53
2022-08-01T06:40:41.438Z,100316.13
2022-08-01T06:43:07.931Z,100324.63
2022-08-01T06:45:34.367Z,100323.53
2022-08-01T06:48:00.837Z,100329.00
2022-08-01T06:50:27.268Z,100334.13
2022-08-01T06:52:53.714Z,100320.66
2022-08-01T06:55:20.759Z,100321.19
2022-08-01T06:57:53.516Z,100324.09
2022-08-01T07:00:23.468Z,100318.19
2022-08-01T07:02:54.633Z,100319.16
2022-08-01T07:05:22.102Z,100322.63
2022-08-01T07:07:48.736Z,100322.00
2022-08-01T07:10:15.167Z,100317.00
2022-08-01T07:12:42.007Z,100319.44
2022-08-01T07:15:10.022Z,100312.34
2022-08-01T07:17:40.777Z,100315.38
2022-08-01T07:20:12.041Z,100309.97
2022-08-01T07:22:40.535Z,100318.78
2022-08-01T07:25:08.772Z,100316.03
2022-08-01T07:27:35.867Z,100313.69
2022-08-01T07:30:02.458Z,100313.63
2022-08-01T07:32:30.252Z,100306.25
2022-08-01T07:34:57.132Z,100302.56
2022-08-01T07:37:42.178Z,100307.19
2022-08-01T07:40:11.960Z,100302.84
2022-08-01T07:42:38.973Z,100306.53
2022-08-01T07:45:05.883Z,100302.88
2022-08-01T07:47:32.325Z,100301.88
2022-08-01T07:50:03.261Z,100305.66
2022-08-01T07:52:31.150Z,100309.72
2022-08-01T07:54:58.723Z,100309.75
2022-08-01T07:57:25.467Z,100311.91
2022-08-01T07:59:52.595Z,100308.31
2022-08-01T08:02:19.164Z,100315.75
2022-08-01T08:04:48.889Z,100310.31
2022-08-01T08:07:16.003Z,100311.41
2022-08-01T08:09:42.507Z,100304.25
2022-08-01T08:12:09.407Z,100313.44
2022-08-01T08:14:36.695Z,100315.16
2022-08-01T08:17:03.192Z,100322.66
2022-08-01T08:19:37.471Z,100319.03
2022-08-01T08:22:05.529Z,100311.19
2022-08-01T08:24:32.276Z,100317.00
2022-08-01T08:26:59.889Z,100316.34
2022-08-01T08:29:27.991Z,100328.34
2022-08-01T08:31:55.767Z,100321.06
2022-08-01T08:34:24.239Z,100321.53
2022-08-01T08:36:51.002Z,100323.44
2022-08-01T08:39:19.930Z,100320.81
2022-08-01T08:41:49.613Z,100315.72
2022-08-01T08:44:17.066Z,100317.44
2022-08-01T08:46:46.120Z,100308.16
2022-08-01T08:49:16.141Z,100306.13
2022-08-01T08:51:44.814Z,100309.91
2022-08-01T08:54:13.695Z,100307.53
2022-08-01T08:56:41.197Z,100295.75
2022-08-01T08:59:07.637Z,100300.59
2022-08-01T09:01:35.821Z,100292.41
2022-08-01T09:04:04.539Z,100293.50
2022-08-01T09:06:32.925Z,100296.50
2022-08-01T09:09:00.442Z,100295.84
2022-08-01T09:11:26.988Z,100292.97
2022-08-01T09:14:16.304Z,100290.75
2022-08-01T09:16:48.565Z,100292.28
2022-08-01T09:19:40.603Z,100294.16
2022-08-01T09:22:08.694Z,100293.19
2022-08-01T09:24:36.667Z,100302.75
2022-08-01T09:27:17.959Z,100296.53
2022-08-01T09:29:49.928Z,100295.16
2022-08-01T09:32:34.251Z,100287.66
2022-08-01T09:35:30.975Z,100304.91
2022-08-01T09:38:20.261Z,100302.66
2022-08-01T09:40:58.651Z,100302.50
2022-08-01T09:43:31.778Z,100298.03
2022-08-01T09:45:59.923Z,100302.38
2022-08-01T09:48:29.631Z,100297.75
2022-08-01T09:51:04.190Z,100295.09
2022-08-01T09:53:52.489Z,100301.91
2022-08-01T09:56:22.520Z,100301.38
2022-08-01T09:58:58.430Z,100294.75
2022-08-01T10:01:26.973Z,100291.53
2022-08-01T10:04:28.898Z,100281.16
2022-08-01T10:07:06.353Z,100286.28
2022-08-01T10:09:40.317Z,100291.63
2022-08-01T10:12:09.161Z,100284.53
2022-08-01T10:14:46.353Z,100290.38
2022-08-01T10:17:19.853Z,100285.84
2022-08-01T10:19:47.969Z,100287.66
2022-08-01T10:22:17.610Z,100275.31
2022-08-01T10:24:48.131Z,100272.91
2022-08-01T10:27:21.656Z,100280.59
2022-08-01T10:30:05.419Z,100277.97
2022-08-01T10:32:36.566Z,100279.06
2022-08-01T10:35:14.785Z,100273.59
2022-08-01T10:37:52.193Z,100272.13
2022-08-01T10:40:30.314Z,100265.09
2022-08-01T10:42:58.714Z,100265.09
2022-08-01T10:45:30.360Z,100265.78
2022-08-01T10:48:00.029Z,100267.88
2022-08-01T10:50:50.225Z,100269.34
2022-08-01T10:53:24.071Z,100266.84
2022-08-01T10:55:57.275Z,100258.66
2022-08-01T10:58:42.873Z,100256.72
2022-08-01T11:01:29.926Z,100257.53
2022-08-01T11:04:01.073Z,100247.94
2022-08-01T11:06:56.325Z,100249.75
2022-08-01T11:09:36.966Z,100239.72
2022-08-01T11:12:23.025Z,100242.13
2022-08-01T11:14:59.439Z,100243.56
2022-08-01T11:17:32.441Z,100244.47
2022-08-01T11:20:15.660Z,100233.84
2022-08-01T11:23:02.914Z,100237.94
2022-08-01T11:26:06.166Z,100234.84
2022-08-01T11:28:37.086Z,100235.00
2022-08-01T11:31:11.560Z,100234.69
2022-08-01T11:33:46.434Z,100228.28
2022-08-01T11:36:48.743Z,100220.78
2022-08-01T11:39:13.114Z,100223.88
2022-08-01T11:41:41.769Z,100224.22
2022-08-01T11:44:15.804Z,100212.38
2022-08-01T11:47:09.094Z,100209.28
2022-08-01T11:49:45.261Z,100221.50
2022-08-01T11:52:30.470Z,100205.50
2022-08-01T11:55:05.513Z,100206.75
2022-08-01T11:57:38.119Z,100206.78
2022-08-01T12:00:18.635Z,100202.00
2022-08-01T12:02:47.244Z,100208.47
2022-08-01T12:05:18.917Z,100201.78
2022-08-01T12:07:50.094Z,100204.53
2022-08-01T12:10:19.462Z,100195.53
2022-08-01T12:12:51.683Z,100194.59
2022-08-01T12:15:19.967Z,100194.16
2022-08-01T12:17:58.915Z,100190.38
2022-08-01T12:20:33.683Z,100197.19
2022-08-01T12:23:02.833Z,100196.75
2022-08-01T12:25:29.708Z,100200.91
2022-08-01T12:28:03.736Z,100190.97
2022-08-01T12:30:36.217Z,100191.81
2022-08-01T12:33:05.881Z,100190.63
2022-08-01T12:35:33.091Z,100182.75
2022-08-01T12:38:05.928Z,100192.50
2022-08-01T12:40:35.446Z,100190.78
2022-08-01T12:43:04.875Z,100184.22
2022-08-01T12:45:40.659Z,100191.16
2022-08-01T12:48:21.482Z,100185.44
2022-08-01T12:50:53.250Z,100181.81
2022-08-01T12:53:21.609Z,100182.75
2022-08-01T12:55:59.170Z,100178.22
2022-08-01T12:58:33.486Z,100179.44
2022-08-01T13:01:14.276Z,100185.31
2022-08-01T13:03:41.340Z,100176.56
2022-08-01T13:06:16.161Z,100183.66
2022-08-01T13:08:43.614Z,100178.06
2022-08-01T13:11:15.652Z,100183.34
2022-08-01T13:13:43.741Z,100182.88
2022-08-01T13:16:12.349Z,100180.34
2022-08-01T13:18:51.624Z,100181.22
2022-08-01T13:21:23.863Z,100173.44
2022-08-01T13:24:11.907Z,100174.19
2022-08-01T13:26:46.987Z,100170.59
2022-08-01T13:29:15.580Z,100168.53
2022-08-01T13:31:42.587Z,100168.72
2022-08-01T13:34:09.446Z,100163.53
2022-08-01T13:36:37.060Z,100168.03
2022-08-01T13:39:23.605Z,100164.41
2022-08-01T13:41:50.062Z,100166.13
2022-08-01T13:44:16.769Z,100172.28
2022-08-01T13:46:49.703Z,100173.66
2022-08-01T13:49:19.027Z,100168.00
2022-08-01T13:51:47.259Z,100163.38
2022-08-01T13:54:13.690Z,100168.19
2022-08-01T13:56:40.141Z,100169.56
2022-08-01T13:59:07.510Z,100161.66
2022-08-01T14:01:34.952Z,100166.78
2022-08-01T14:04:02.000Z,100174.44
2022-08-01T14:06:28.635Z,100166.63
2022-08-01T14:08:55.057Z,100166.28
2022-08-01T14:11:21.575Z,100164.59
2022-08-01T14:13:48.063Z,100172.31
2022-08-01T14:16:15.451Z,100163.34
2022-08-01T14:18:42.159Z,100164.84
2022-08-01T14:21:10.958Z,100178.25
2022-08-01T14:23:37.410Z,100166.44
2022-08-01T14:26:09.708Z,100172.41
2022-08-01T14:28:39.300Z,100170.78
2022-08-01T14:31:07.122Z,100170.22
2022-08-01T14:33:34.474Z,100172.84
2022-08-01T14:36:05.203Z,100168.44
2022-08-01T14:38:34.526Z,100170.03
2022-08-01T14:41:03.628Z,100176.91
2022-08-01T14:43:33.637Z,100172.50
2022-08-01T14:46:01.611Z,100164.38
2022-08-01T14:48:28.160Z,100167.13
2022-08-01T14:50:56.708Z,100168.88
2022-08-01T14:53:23.122Z,100179.66
2022-08-01T14:55:49.577Z,100175.16
2022-08-01T14:58:15.986Z,100176.09
2022-08-01T15:00:42.598Z,100172.38
2022-08-01T15:03:09.176Z,100173.31
2022-08-01T15:05:36.687Z,100181.28
2022-08-01T15:08:04.683Z,100177.47
2022-08-01T15:10:33.071Z,100170.81
2022-08-01T15:13:00.995Z,100174.47
2022-08-01T15:15:28.324Z,100170.03
2022-08-01T15:17:54.786Z,100180.47
2022-08-01T15:20:21.362Z,100175.38
2022-08-01T15:22:48.725Z,100176.94
2022-08-01T15:25:15.443Z,100180.03
2022-08-01T15:27:42.076Z,100176.81
2022-08-01T15:30:08.871Z,100174.59
2022-08-01T15:32:35.392Z,100184.88
2022-08-01T15:35:01.807Z,100179.63
2022-08-01T15:37:28.289Z,100180.00
2022-08-01T15:39:56.390Z,100183.78
2022-08-01T15:42:25.329Z,100183.38
2022-08-01T15:44:53.222Z,100181.69
2022-08-01T15:47:19.695Z,100178.09
2022-08-01T15:49:46.400Z,100180.13
2022-08-01T15:52:21.931Z,100184.59
2022-08-01T15:54:49.940Z,100183.34
2022-08-01T15:57:16.567Z,100190.34
2022-08-01T15:59:42.993Z,100182.88
2022-08-01T16:02:09.899Z,100185.81
2022-08-01T16:04:38.784Z,100187.31
2022-08-01T16:07:06.149Z,100187.19
2022-08-01T16:09:32.582Z,100188.84
2022-08-01T16:11:59.024Z,100190.22
2022-08-01T16:14:25.502Z,100192.09
2022-08-01T16:16:51.917Z,100185.75
2022-08-01T16:19:19.402Z,100183.56
2022-08-01T16:21:47.831Z,100185.63
2022-08-01T16:24:14.536Z,100188.97
2022-08-01T16:26:41.165Z,100197.94
2022-08-01T16:29:07.569Z,100197.94
2022-08-01T16:31:36.796Z,100198.94
2022-08-01T16:34:10.243Z,100194.84
2022-08-01T16:36:40.284Z,100187.66
2022-08-01T16:39:07.673Z,100187.53
2022-08-01T16:41:37.763Z,100194.69
2022-08-01T16:44:04.443Z,100184.31
2022-08-01T16:46:33.889Z,100178.38
2022-08-01T16:49:03.777Z,100192.09
2022-08-01T16:51:32.536Z,100190.09
2022-08-01T16:53:59.733Z,100190.72
2022-08-01T16:56:26.322Z,100191.19
2022-08-01T16:58:52.869Z,100190.34
2022-08-01T17:01:59.906Z,100195.59
2022-08-01T17:04:06.182Z,100199.47
2022-08-01T17:06:32.660Z,100199.47
2022-08-01T17:08:59.227Z,100207.53
2022-08-01T17:11:25.768Z,100204.81
2022-08-01T17:13:52.380Z,100204.44
2022-08-01T17:16:18.854Z,100207.78
2022-08-01T17:18:45.478Z,100210.38
2022-08-01T17:21:12.035Z,100216.81
2022-08-01T17:23:38.540Z,100210.66
2022-08-01T17:26:04.958Z,100213.28
2022-08-01T17:28:31.457Z,100211.91
2022-08-01T17:30:58.247Z,100208.50
2022-08-01T17:33:24.796Z,100213.25
2022-08-01T17:36:11.239Z,100206.63
2022-08-01T17:38:37.652Z,100210.66
2022-08-01T17:41:04.114Z,100210.00
2022-08-01T17:43:30.577Z,100209.16
2022-08-01T17:45:57.550Z,100213.28
2022-08-01T17:48:24.257Z,100213.88
2022-08-01T17:50:50.708Z,100213.47
2022-08-01T17:53:20.972Z,100222.50
2022-08-01T17:55:55.595Z,100212.78
2022-08-01T17:58:49.115Z,100221.06
2022-08-01T18:01:15.469Z,100220.50
2022-08-01T18:03:42.325Z,100227.06
2022-08-01T18:06:10.309Z,100230.19
2022-08-01T18:08:40.164Z,100232.06
2022-08-01T18:11:06.626Z,100234.31
2022-08-01T18:13:33.707Z,100236.78
2022-08-01T18:16:00.662Z,100233.50
2022-08-01T18:18:33.396Z,100236.09
2022-08-01T18:21:01.380Z,100240.53
2022-08-01T18:23:27.971Z,100239.59
2022-08-01T18:25:54.522Z,100243.03
2022-08-01T18:28:31.589Z,100238.72
2022-08-01T18:31:02.039Z,100242.00
2022-08-01T18:33:28.583Z,100245.25
2022-08-01T18:35:56.194Z,100235.63
2022-08-01T18:38:29.221Z,100257.88
2022-08-01T18:40:55.958Z,100256.06
2022-08-01T18:43:22.433Z,100270.50
2022-08-01T18:45:48.907Z,100263.69
2022-08-01T18:48:15.528Z,100260.31
2022-08-01T18:50:41.961Z,100259.56
2022-08-01T18:53:08.436Z,100264.63
2022-08-01T18:55:34.879Z,100266.75
2022-08-01T18:58:01.263Z,100265.91
2022-08-01T19:00:27.786Z,100271.47
2022-08-01T19:02:55.141Z,100271.22
2022-08-01T19:05:21.550Z,100273.25
2022-08-01T19:08:06.670Z,100284.94
2022-08-01T19:10:35.655Z,100284.75
2022-08-01T19:13:02.889Z,100283.22
2022-08-01T19:15:29.375Z,100292.53
2022-08-01T19:17:55.772Z,100288.47
2022-08-01T19:20:22.176Z,100291.53
2022-08-01T19:22:48.678Z,100298.97
2022-08-01T19:25:15.728Z,100306.81
2022-08-01T19:27:47.801Z,100295.59
2022-08-01T19:30:15.235Z,100301.97
2022-08-01T19:32:46.835Z,100310.22
2022-08-01T19:35:15.230Z,100308.47
2022-08-01T19:37:48.668Z,100306.59
2022-08-01T19:40:26.164Z,100319.19
2022-08-01T19:42:54.992Z,100323.72
2022-08-01T19:45:22.159Z,100321.22
2022-08-01T19:47:56.505Z,100332.25
2022-08-01T19:50:24.049Z,100333.47
2022-08-01T19:52:52.780Z,100342.69
2022-08-01T19:55:19.609Z,100340.78
2022-08-01T19:58:16.978Z,100334.22
2022-08-01T20:00:40.228Z,100334.34
2022-08-01T20:03:07.879Z,100337.13
2022-08-01T20:05:36.361Z,100341.28
2022-08-01T20:08:03.664Z,100342.59
2022-08-01T20:10:32.274Z,100337.75
2022-08-01T20:12:58.754Z,100334.19
2022-08-01T20:15:25.446Z,100337.47
2022-08-01T20:17:51.989Z,100343.09
2022-08-01T20:20:18.458Z,100337.66
2022-08-01T20:22:46.724Z,100343.38
2022-08-01T20:25:13.359Z,100348.28
2022-08-01T20:27:46.508Z,100351.63
2022-08-01T20:30:13.337Z,100354.16
2022-08-01T20:32:40.824Z,100351.22
2022-08-01T20:35:08.017Z,100361.22
2022-08-01T20:38:06.283Z,100356.97
2022-08-01T20:40:27.925Z,100359.13
2022-08-01T20:42:55.847Z,100359.91
2022-08-01T20:45:24.187Z,100362.84
2022-08-01T20:47:51.886Z,100368.03
2022-08-01T20:50:53.638Z,100374.31
2022-08-01T20:53:22.671Z,100370.28
2022-08-01T20:55:54.437Z,100374.22
2022-08-01T20:58:33.794Z,100376.94
2022-08-01T21:01:03.054Z,100369.66
2022-08-01T21:03:44.251Z,100379.00
2022-08-01T21:06:17.257Z,100372.56
2022-08-01T21:08:47.590Z,100383.94
2022-08-01T21:11:20.347Z,100383.63
2022-08-01T21:13:50.937Z,100387.38
2022-08-01T21:16:25.191Z,100389.19
2022-08-01T21:19:16.773Z,100395.25
2022-08-01T21:21:43.391Z,100394.81
2022-08-01T21:24:16.539Z,100384.41
2022-08-01T21:26:44.144Z,100394.41
2022-08-01T21:29:11.850Z,100394.41
2022-08-01T21:31:40.800Z,100403.59
2022-08-01T21:34:08.162Z,100397.19
2022-08-01T21:36:35.719Z,100393.50
2022-08-01T21:39:04.611Z,100389.97
2022-08-01T21:41:56.205Z,100396.38
2022-08-01T21:44:20.632Z,100384.28
2022-08-01T21:46:48.427Z,100392.25
2022-08-01T21:49:15.069Z,100393.75
2022-08-01T21:51:47.605Z,100406.22
2022-08-01T21:54:41.271Z,100403.66
2022-08-01T21:57:23.439Z,100404.25
2022-08-01T22:00:08.908Z,100401.88
2022-08-01T22:02:39.183Z,100402.72
2022-08-01T22:05:11.316Z,100410.59
2022-08-01T22:07:52.425Z,100401.38
2022-08-01T22:10:20.233Z,100403.75
2022-08-01T22:12:47.439Z,100405.28
2022-08-01T22:15:14.583Z,100402.56
2022-08-01T22:17:41.650Z,100404.84
2022-08-01T22:20:09.195Z,100406.91
2022-08-01T22:22:51.755Z,100404.19
2022-08-01T22:25:20.547Z,100408.72
2022-08-01T22:28:02.854Z,100407.44
2022-08-01T22:30:35.033Z,100406.72
2022-08-01T22:33:07.073Z,100410.59
2022-08-01T22:35:44.432Z,100416.66
2022-08-01T22:38:10.865Z,100423.06
2022-08-01T22:40:40.295Z,100418.53
2022-08-01T22:43:17.623Z,100413.56
2022-08-01T22:46:29.113Z,100410.00
2022-08-01T22:49:01.615Z,100413.84
2022-08-01T22:51:54.917Z,100422.25
2022-08-01T22:54:28.924Z,100425.19
2022-08-01T22:56:57.161Z,100427.41
2022-08-01T22:59:42.498Z,100431.81
2022-08-01T23:02:14.503Z,100430.56
2022-08-01T23:04:49.424Z,100431.53
2022-08-01T23:07:22.778Z,100431.22
2022-08-01T23:09:54.041Z,100433.69
2022-08-01T23:12:23.354Z,100433.88
2022-08-01T23:14:53.693Z,100434.94
2022-08-01T23:17:27.021Z,100436.16
2022-08-01T23:20:03.325Z,100430.66
2022-08-01T23:22:32.443Z,100424.69
2022-08-01T23:25:03.949Z,100424.84
2022-08-01T23:28:03.679Z,100431.34
2022-08-01T23:30:24.401Z,100432.28
2022-08-01T23:32:50.939Z,100434.63
2022-08-01T23:35:17.422Z,100436.97
2022-08-01T23:37:44.012Z,100435.88
2022-08-01T23:40:11.256Z,100432.50
2022-08-01T23:42:37.907Z,100436.28
2022-08-01T23:45:04.826Z,100431.63
2022-08-01T23:47:31.277Z,100429.81
2022-08-01T23:49:57.726Z,100433.16
2022-08-01T23:52:24.376Z,100431.03
2022-08-01T23:54:56.170Z,100434.81
2022-08-01T23:57:23.641Z,100435.63
2022-08-01T23:59:52.782Z,100433.84
